Terminal Aerodrome Forecast
Issued by NWS Jackson, MS

Home | Current Version | Previous Version | Text Only | Print | Product List | Glossary On
Versions: 1 2 3 4 5 6 7 8 9 10 11 12
000
FTUS44 KJAN 021501 AAA
TAFGLH
TAF AMD
KGLH 021501Z 0215/0312 23014KT P6SM SCT120 BKN200
     FM021700 25018G28KT P6SM VCSH FEW050 SCT100 BKN250
     FM030100 23010KT P6SM OVC250=

USA.gov is the U.S. government's official web portal to all federal, state and local government web resources and services.